sensor_id;sensor_type;location;lat;lon;timestamp;P1;durP1;ratioP1;P2;durP2;ratioP2
49147;SDS011;41980;45.550;12.070;2023-02-01T00:01:34;54.05;;;35.03;;
49147;SDS011;41980;45.550;12.070;2023-02-01T00:07:53;43.45;;;28.92;;
49147;SDS011;41980;45.550;12.070;2023-02-01T00:14:13;49.00;;;31.15;;
49147;SDS011;41980;45.550;12.070;2023-02-01T00:26:31;45.95;;;29.23;;
49147;SDS011;41980;45.550;12.070;2023-02-01T00:32:46;71.10;;;44.80;;
49147;SDS011;41980;45.550;12.070;2023-02-01T00:38:58;68.63;;;43.15;;
49147;SDS011;41980;45.550;12.070;2023-02-01T00:45:05;69.90;;;43.65;;
49147;SDS011;41980;45.550;12.070;2023-02-01T00:51:18;55.77;;;33.37;;
49147;SDS011;41980;45.550;12.070;2023-02-01T00:57:32;101.35;;;57.67;;
49147;SDS011;41980;45.550;12.070;2023-02-01T01:03:57;77.65;;;48.08;;
49147;SDS011;41980;45.550;12.070;2023-02-01T01:10:06;60.17;;;40.28;;
49147;SDS011;41980;45.550;12.070;2023-02-01T01:16:44;83.40;;;48.70;;
49147;SDS011;41980;45.550;12.070;2023-02-01T01:22:54;71.85;;;46.30;;
49147;SDS011;41980;45.550;12.070;2023-02-01T01:30:09;60.05;;;37.60;;
49147;SDS011;41980;45.550;12.070;2023-02-01T01:36:25;110.28;;;67.28;;
49147;SDS011;41980;45.550;12.070;2023-02-01T01:43:05;62.97;;;40.72;;
49147;SDS011;41980;45.550;12.070;2023-02-01T01:49:16;55.93;;;34.30;;
49147;SDS011;41980;45.550;12.070;2023-02-01T01:55:22;50.35;;;30.77;;
49147;SDS011;41980;45.550;12.070;2023-02-01T02:01:28;61.45;;;37.38;;
49147;SDS011;41980;45.550;12.070;2023-02-01T02:07:31;57.25;;;35.30;;
49147;SDS011;41980;45.550;12.070;2023-02-01T02:13:40;51.83;;;30.73;;
49147;SDS011;41980;45.550;12.070;2023-02-01T02:25:55;43.03;;;25.83;;
49147;SDS011;41980;45.550;12.070;2023-02-01T02:50:38;121.53;;;70.13;;
49147;SDS011;41980;45.550;12.070;2023-02-01T02:56:49;91.75;;;51.97;;
49147;SDS011;41980;45.550;12.070;2023-02-01T03:02:57;82.68;;;49.45;;
49147;SDS011;41980;45.550;12.070;2023-02-01T03:09:04;81.85;;;44.58;;
49147;SDS011;41980;45.550;12.070;2023-02-01T03:15:14;98.87;;;48.73;;
49147;SDS011;41980;45.550;12.070;2023-02-01T03:21:23;74.22;;;42.53;;
49147;SDS011;41980;45.550;12.070;2023-02-01T03:33:43;60.88;;;36.85;;
49147;SDS011;41980;45.550;12.070;2023-02-01T03:39:47;54.15;;;33.13;;
49147;SDS011;41980;45.550;12.070;2023-02-01T03:46:00;57.83;;;34.65;;
49147;SDS011;41980;45.550;12.070;2023-02-01T03:52:14;71.03;;;42.78;;
49147;SDS011;41980;45.550;12.070;2023-02-01T03:58:22;74.07;;;44.90;;
49147;SDS011;41980;45.550;12.070;2023-02-01T04:04:27;52.80;;;32.58;;
49147;SDS011;41980;45.550;12.070;2023-02-01T04:10:31;46.28;;;29.70;;
49147;SDS011;41980;45.550;12.070;2023-02-01T04:16:38;50.47;;;30.85;;
49147;SDS011;41980;45.550;12.070;2023-02-01T04:22:40;44.90;;;27.70;;
49147;SDS011;41980;45.550;12.070;2023-02-01T04:28:45;42.03;;;25.45;;
49147;SDS011;41980;45.550;12.070;2023-02-01T04:34:49;43.53;;;26.40;;
49147;SDS011;41980;45.550;12.070;2023-02-01T04:40:51;31.45;;;19.95;;
49147;SDS011;41980;45.550;12.070;2023-02-01T04:46:53;36.00;;;24.05;;
49147;SDS011;41980;45.550;12.070;2023-02-01T04:52:55;36.28;;;22.42;;
49147;SDS011;41980;45.550;12.070;2023-02-01T04:58:58;42.13;;;25.50;;
49147;SDS011;41980;45.550;12.070;2023-02-01T05:05:01;37.75;;;23.73;;
49147;SDS011;41980;45.550;12.070;2023-02-01T05:11:04;51.40;;;33.20;;
49147;SDS011;41980;45.550;12.070;2023-02-01T05:17:06;50.40;;;32.17;;
49147;SDS011;41980;45.550;12.070;2023-02-01T05:23:09;73.47;;;45.25;;
49147;SDS011;41980;45.550;12.070;2023-02-01T05:29:14;57.45;;;35.33;;
49147;SDS011;41980;45.550;12.070;2023-02-01T05:35:24;39.92;;;25.27;;
49147;SDS011;41980;45.550;12.070;2023-02-01T05:41:26;42.75;;;26.02;;
49147;SDS011;41980;45.550;12.070;2023-02-01T05:47:31;32.40;;;20.15;;
49147;SDS011;41980;45.550;12.070;2023-02-01T05:53:33;27.20;;;17.20;;
49147;SDS011;41980;45.550;12.070;2023-02-01T05:59:36;36.25;;;20.55;;
49147;SDS011;41980;45.550;12.070;2023-02-01T06:05:43;108.53;;;51.15;;
49147;SDS011;41980;45.550;12.070;2023-02-01T06:11:46;69.95;;;42.83;;
49147;SDS011;41980;45.550;12.070;2023-02-01T06:17:48;49.72;;;28.33;;
49147;SDS011;41980;45.550;12.070;2023-02-01T06:23:51;45.38;;;26.23;;
49147;SDS011;41980;45.550;12.070;2023-02-01T06:29:55;37.67;;;21.63;;
49147;SDS011;41980;45.550;12.070;2023-02-01T06:35:57;35.22;;;22.25;;
49147;SDS011;41980;45.550;12.070;2023-02-01T06:42:00;23.58;;;14.18;;
49147;SDS011;41980;45.550;12.070;2023-02-01T06:54:04;36.67;;;22.02;;
49147;SDS011;41980;45.550;12.070;2023-02-01T07:06:09;26.27;;;16.47;;
49147;SDS011;41980;45.550;12.070;2023-02-01T07:12:11;29.23;;;17.35;;
49147;SDS011;41980;45.550;12.070;2023-02-01T07:24:16;24.80;;;14.82;;
49147;SDS011;41980;45.550;12.070;2023-02-01T07:36:23;24.45;;;15.43;;
49147;SDS011;41980;45.550;12.070;2023-02-01T07:48:37;21.90;;;13.80;;
49147;SDS011;41980;45.550;12.070;2023-02-01T07:54:50;20.25;;;12.57;;
49147;SDS011;41980;45.550;12.070;2023-02-01T08:00:53;27.02;;;17.40;;
49147;SDS011;41980;45.550;12.070;2023-02-01T08:06:59;27.10;;;15.95;;
49147;SDS011;41980;45.550;12.070;2023-02-01T08:19:03;21.97;;;12.77;;
49147;SDS011;41980;45.550;12.070;2023-02-01T08:31:08;21.30;;;12.55;;
49147;SDS011;41980;45.550;12.070;2023-02-01T08:37:13;19.80;;;12.02;;
49147;SDS011;41980;45.550;12.070;2023-02-01T08:43:15;20.63;;;12.80;;
49147;SDS011;41980;45.550;12.070;2023-02-01T08:49:17;18.35;;;10.90;;
49147;SDS011;41980;45.550;12.070;2023-02-01T08:55:19;16.33;;;9.80;;
49147;SDS011;41980;45.550;12.070;2023-02-01T09:01:22;17.95;;;10.55;;
49147;SDS011;41980;45.550;12.070;2023-02-01T09:07:24;14.93;;;9.05;;
49147;SDS011;41980;45.550;12.070;2023-02-01T09:13:26;22.77;;;14.63;;
49147;SDS011;41980;45.550;12.070;2023-02-01T09:19:29;21.77;;;14.18;;
49147;SDS011;41980;45.550;12.070;2023-02-01T09:25:31;20.70;;;12.45;;
49147;SDS011;41980;45.550;12.070;2023-02-01T09:37:35;13.82;;;8.52;;
49147;SDS011;41980;45.550;12.070;2023-02-01T09:50:00;19.48;;;12.82;;
49147;SDS011;41980;45.550;12.070;2023-02-01T09:56:12;25.83;;;16.08;;
49147;SDS011;41980;45.550;12.070;2023-02-01T10:02:20;19.13;;;10.68;;
49147;SDS011;41980;45.550;12.070;2023-02-01T10:34:33;18.13;;;11.07;;
49147;SDS011;41980;45.550;12.070;2023-02-01T10:41:38;22.50;;;13.30;;
49147;SDS011;41980;45.550;12.070;2023-02-01T10:48:10;25.42;;;17.45;;
49147;SDS011;41980;45.550;12.070;2023-02-01T10:54:22;23.25;;;15.38;;
49147;SDS011;41980;45.550;12.070;2023-02-01T11:01:06;36.83;;;23.08;;
49147;SDS011;41980;45.550;12.070;2023-02-01T11:13:20;30.88;;;19.73;;
49147;SDS011;41980;45.550;12.070;2023-02-01T11:19:32;38.30;;;25.20;;
49147;SDS011;41980;45.550;12.070;2023-02-01T11:25:37;37.67;;;25.67;;
49147;SDS011;41980;45.550;12.070;2023-02-01T11:31:54;32.30;;;22.77;;
49147;SDS011;41980;45.550;12.070;2023-02-01T11:37:59;58.75;;;39.00;;
49147;SDS011;41980;45.550;12.070;2023-02-01T11:44:02;48.25;;;33.38;;
49147;SDS011;41980;45.550;12.070;2023-02-01T12:47:12;28.35;;;18.80;;
49147;SDS011;41980;45.550;12.070;2023-02-01T12:54:12;25.90;;;16.42;;
49147;SDS011;41980;45.550;12.070;2023-02-01T13:00:22;29.55;;;18.48;;
49147;SDS011;41980;45.550;12.070;2023-02-01T13:06:29;37.03;;;23.95;;
49147;SDS011;41980;45.550;12.070;2023-02-01T14:15:26;43.00;;;28.50;;
49147;SDS011;41980;45.550;12.070;2023-02-01T15:22:27;46.50;;;27.17;;
49147;SDS011;41980;45.550;12.070;2023-02-01T15:29:10;50.80;;;27.15;;
49147;SDS011;41980;45.550;12.070;2023-02-01T15:42:15;68.15;;;38.10;;
49147;SDS011;41980;45.550;12.070;2023-02-01T16:04:47;29.23;;;15.50;;
49147;SDS011;41980;45.550;12.070;2023-02-01T16:17:24;143.93;;;55.25;;
49147;SDS011;41980;45.550;12.070;2023-02-01T16:23:27;73.35;;;31.45;;
49147;SDS011;41980;45.550;12.070;2023-02-01T16:58:42;42.10;;;23.05;;
49147;SDS011;41980;45.550;12.070;2023-02-01T17:18:52;36.15;;;20.05;;
49147;SDS011;41980;45.550;12.070;2023-02-01T17:25:25;44.40;;;29.23;;
49147;SDS011;41980;45.550;12.070;2023-02-01T17:46:10;39.00;;;25.38;;
49147;SDS011;41980;45.550;12.070;2023-02-01T17:52:56;53.72;;;33.65;;
49147;SDS011;41980;45.550;12.070;2023-02-01T18:19:46;46.25;;;28.30;;
49147;SDS011;41980;45.550;12.070;2023-02-01T18:27:00;43.50;;;31.17;;
49147;SDS011;41980;45.550;12.070;2023-02-01T18:33:09;45.53;;;30.60;;
49147;SDS011;41980;45.550;12.070;2023-02-01T18:39:20;51.30;;;31.98;;
49147;SDS011;41980;45.550;12.070;2023-02-01T18:53:18;47.83;;;30.30;;
49147;SDS011;41980;45.550;12.070;2023-02-01T18:59:47;76.50;;;48.53;;
49147;SDS011;41980;45.550;12.070;2023-02-01T19:06:21;54.47;;;37.10;;
49147;SDS011;41980;45.550;12.070;2023-02-01T19:12:58;50.58;;;33.80;;
49147;SDS011;41980;45.550;12.070;2023-02-01T19:26:10;45.53;;;31.20;;
49147;SDS011;41980;45.550;12.070;2023-02-01T19:32:20;43.72;;;29.77;;
49147;SDS011;41980;45.550;12.070;2023-02-01T19:38:24;43.67;;;27.83;;
49147;SDS011;41980;45.550;12.070;2023-02-01T19:44:58;62.45;;;42.42;;
49147;SDS011;41980;45.550;12.070;2023-02-01T19:51:14;55.33;;;34.80;;
49147;SDS011;41980;45.550;12.070;2023-02-01T19:57:17;92.70;;;56.17;;
49147;SDS011;41980;45.550;12.070;2023-02-01T20:03:26;60.33;;;37.45;;
49147;SDS011;41980;45.550;12.070;2023-02-01T20:16:59;52.30;;;31.83;;
49147;SDS011;41980;45.550;12.070;2023-02-01T20:57:37;104.03;;;68.22;;
49147;SDS011;41980;45.550;12.070;2023-02-01T21:17:33;64.20;;;44.28;;
49147;SDS011;41980;45.550;12.070;2023-02-01T21:24:26;64.50;;;41.50;;
49147;SDS011;41980;45.550;12.070;2023-02-01T21:31:11;66.10;;;39.72;;
49147;SDS011;41980;45.550;12.070;2023-02-01T21:38:05;73.93;;;48.13;;
49147;SDS011;41980;45.550;12.070;2023-02-01T21:44:34;67.30;;;43.58;;
49147;SDS011;41980;45.550;12.070;2023-02-01T22:35:24;88.18;;;56.42;;
49147;SDS011;41980;45.550;12.070;2023-02-01T22:41:58;73.45;;;48.25;;
49147;SDS011;41980;45.550;12.070;2023-02-01T23:02:27;83.32;;;53.05;;
49147;SDS011;41980;45.550;12.070;2023-02-01T23:09:14;84.10;;;50.20;;
49147;SDS011;41980;45.550;12.070;2023-02-01T23:15:42;87.25;;;53.03;;
49147;SDS011;41980;45.550;12.070;2023-02-01T23:22:11;70.55;;;45.05;;
49147;SDS011;41980;45.550;12.070;2023-02-01T23:28:19;114.80;;;69.85;;
49147;SDS011;41980;45.550;12.070;2023-02-01T23:48:27;129.40;;;76.28;;
49147;SDS011;41980;45.550;12.070;2023-02-01T23:54:43;104.38;;;64.55;;
